sensor_id;sensor_type;location;lat;lon;timestamp;temperature;humidity
15819;DHT22;8010;53.986;12.106;2024-03-07T00:02:10;4.40;99.90
15819;DHT22;8010;53.986;12.106;2024-03-07T00:04:36;4.40;99.90
15819;DHT22;8010;53.986;12.106;2024-03-07T00:07:03;4.30;99.90
15819;DHT22;8010;53.986;12.106;2024-03-07T00:09:33;4.30;99.90
15819;DHT22;8010;53.986;12.106;2024-03-07T00:12:00;4.30;99.90
15819;DHT22;8010;53.986;12.106;2024-03-07T00:14:26;4.30;99.90
15819;DHT22;8010;53.986;12.106;2024-03-07T00:16:56;4.20;99.90
15819;DHT22;8010;53.986;12.106;2024-03-07T00:19:22;4.20;99.90
15819;DHT22;8010;53.986;12.106;2024-03-07T00:21:51;4.20;99.90
15819;DHT22;8010;53.986;12.106;2024-03-07T00:24:17;4.20;99.90
15819;DHT22;8010;53.986;12.106;2024-03-07T00:26:42;4.20;99.90
15819;DHT22;8010;53.986;12.106;2024-03-07T00:29:08;4.20;99.90
15819;DHT22;8010;53.986;12.106;2024-03-07T00:31:34;4.20;99.90
15819;DHT22;8010;53.986;12.106;2024-03-07T00:33:59;4.20;99.90
15819;DHT22;8010;53.986;12.106;2024-03-07T00:36:25;4.20;99.90
15819;DHT22;8010;53.986;12.106;2024-03-07T00:38:54;4.20;99.90
15819;DHT22;8010;53.986;12.106;2024-03-07T00:41:19;4.10;99.90
15819;DHT22;8010;53.986;12.106;2024-03-07T00:43:45;4.10;99.90
15819;DHT22;8010;53.986;12.106;2024-03-07T00:46:11;4.10;99.90
15819;DHT22;8010;53.986;12.106;2024-03-07T00:48:37;4.10;99.90
15819;DHT22;8010;53.986;12.106;2024-03-07T00:51:03;4.10;99.90
15819;DHT22;8010;53.986;12.106;2024-03-07T00:53:29;5.30;99.90
15819;DHT22;8010;53.986;12.106;2024-03-07T00:55:55;4.10;99.90
15819;DHT22;8010;53.986;12.106;2024-03-07T00:58:21;4.10;99.90
15819;DHT22;8010;53.986;12.106;2024-03-07T01:00:46;4.10;99.90
15819;DHT22;8010;53.986;12.106;2024-03-07T01:03:12;4.80;99.90
15819;DHT22;8010;53.986;12.106;2024-03-07T01:05:39;4.00;99.90
15819;DHT22;8010;53.986;12.106;2024-03-07T01:08:05;4.00;99.90
15819;DHT22;8010;53.986;12.106;2024-03-07T01:10:31;4.00;99.90
15819;DHT22;8010;53.986;12.106;2024-03-07T01:12:57;4.00;99.90
15819;DHT22;8010;53.986;12.106;2024-03-07T01:15:26;4.00;99.90
15819;DHT22;8010;53.986;12.106;2024-03-07T01:17:52;4.00;99.90
15819;DHT22;8010;53.986;12.106;2024-03-07T01:20:17;4.00;99.90
15819;DHT22;8010;53.986;12.106;2024-03-07T01:22:44;4.00;99.90
15819;DHT22;8010;53.986;12.106;2024-03-07T01:25:09;4.00;99.90
15819;DHT22;8010;53.986;12.106;2024-03-07T01:27:35;3.90;99.90
15819;DHT22;8010;53.986;12.106;2024-03-07T01:30:00;4.00;99.90
15819;DHT22;8010;53.986;12.106;2024-03-07T01:32:27;4.00;99.90
15819;DHT22;8010;53.986;12.106;2024-03-07T01:34:54;4.00;99.90
15819;DHT22;8010;53.986;12.106;2024-03-07T01:37:20;4.00;99.90
15819;DHT22;8010;53.986;12.106;2024-03-07T01:39:45;3.90;99.90
15819;DHT22;8010;53.986;12.106;2024-03-07T01:42:12;4.00;99.90
15819;DHT22;8010;53.986;12.106;2024-03-07T01:44:37;3.90;99.90
15819;DHT22;8010;53.986;12.106;2024-03-07T01:47:05;4.00;99.90
15819;DHT22;8010;53.986;12.106;2024-03-07T01:49:31;4.00;99.90
15819;DHT22;8010;53.986;12.106;2024-03-07T01:51:58;4.00;99.90
15819;DHT22;8010;53.986;12.106;2024-03-07T01:54:25;4.00;99.90
15819;DHT22;8010;53.986;12.106;2024-03-07T01:56:51;3.90;99.90
15819;DHT22;8010;53.986;12.106;2024-03-07T01:59:17;3.90;99.90
15819;DHT22;8010;53.986;12.106;2024-03-07T02:01:46;4.00;99.90
15819;DHT22;8010;53.986;12.106;2024-03-07T02:04:12;4.10;99.90
15819;DHT22;8010;53.986;12.106;2024-03-07T02:06:37;4.00;99.90
15819;DHT22;8010;53.986;12.106;2024-03-07T02:09:03;4.00;99.90
15819;DHT22;8010;53.986;12.106;2024-03-07T02:11:31;4.00;99.90
15819;DHT22;8010;53.986;12.106;2024-03-07T02:13:56;3.90;99.90
15819;DHT22;8010;53.986;12.106;2024-03-07T02:16:22;4.00;99.90
15819;DHT22;8010;53.986;12.106;2024-03-07T02:18:48;4.00;99.90
15819;DHT22;8010;53.986;12.106;2024-03-07T02:21:14;4.10;99.90
15819;DHT22;8010;53.986;12.106;2024-03-07T02:23:39;4.00;99.90
15819;DHT22;8010;53.986;12.106;2024-03-07T02:26:06;4.00;99.90
15819;DHT22;8010;53.986;12.106;2024-03-07T02:28:34;4.00;99.90
15819;DHT22;8010;53.986;12.106;2024-03-07T02:31:00;4.00;99.90
15819;DHT22;8010;53.986;12.106;2024-03-07T02:33:26;4.00;99.90
15819;DHT22;8010;53.986;12.106;2024-03-07T02:35:51;4.00;99.90
15819;DHT22;8010;53.986;12.106;2024-03-07T02:38:18;4.00;99.90
15819;DHT22;8010;53.986;12.106;2024-03-07T02:40:43;4.00;99.90
15819;DHT22;8010;53.986;12.106;2024-03-07T02:43:09;4.00;99.90
15819;DHT22;8010;53.986;12.106;2024-03-07T02:45:34;4.00;99.90
15819;DHT22;8010;53.986;12.106;2024-03-07T02:48:00;4.10;99.90
15819;DHT22;8010;53.986;12.106;2024-03-07T02:50:25;4.00;99.90
15819;DHT22;8010;53.986;12.106;2024-03-07T02:52:51;4.10;99.90
15819;DHT22;8010;53.986;12.106;2024-03-07T02:55:18;4.00;99.90
15819;DHT22;8010;53.986;12.106;2024-03-07T02:57:44;4.10;99.90
15819;DHT22;8010;53.986;12.106;2024-03-07T03:00:11;4.10;99.90
15819;DHT22;8010;53.986;12.106;2024-03-07T03:02:48;4.00;99.90
15819;DHT22;8010;53.986;12.106;2024-03-07T03:05:15;4.10;99.90
15819;DHT22;8010;53.986;12.106;2024-03-07T03:07:41;4.00;99.90
15819;DHT22;8010;53.986;12.106;2024-03-07T03:10:07;4.00;99.90
15819;DHT22;8010;53.986;12.106;2024-03-07T03:12:36;4.00;99.90
15819;DHT22;8010;53.986;12.106;2024-03-07T03:15:03;4.00;99.90
15819;DHT22;8010;53.986;12.106;2024-03-07T03:17:31;4.00;99.90
15819;DHT22;8010;53.986;12.106;2024-03-07T03:19:57;4.00;99.90
15819;DHT22;8010;53.986;12.106;2024-03-07T03:22:22;4.00;99.90
15819;DHT22;8010;53.986;12.106;2024-03-07T03:24:48;4.00;99.90
15819;DHT22;8010;53.986;12.106;2024-03-07T03:27:13;4.00;99.90
15819;DHT22;8010;53.986;12.106;2024-03-07T03:29:39;3.90;99.90
15819;DHT22;8010;53.986;12.106;2024-03-07T03:32:06;3.90;99.90
15819;DHT22;8010;53.986;12.106;2024-03-07T03:34:32;3.90;99.90
15819;DHT22;8010;53.986;12.106;2024-03-07T03:36:59;4.00;99.90
15819;DHT22;8010;53.986;12.106;2024-03-07T03:39:24;4.00;99.90
15819;DHT22;8010;53.986;12.106;2024-03-07T03:41:52;4.00;99.90
15819;DHT22;8010;53.986;12.106;2024-03-07T03:44:18;4.00;99.90
15819;DHT22;8010;53.986;12.106;2024-03-07T03:46:44;4.00;99.90
15819;DHT22;8010;53.986;12.106;2024-03-07T03:49:09;4.00;99.90
15819;DHT22;8010;53.986;12.106;2024-03-07T03:51:35;4.00;99.90
15819;DHT22;8010;53.986;12.106;2024-03-07T03:54:01;4.10;99.90
15819;DHT22;8010;53.986;12.106;2024-03-07T03:56:27;4.00;99.90
15819;DHT22;8010;53.986;12.106;2024-03-07T03:58:53;4.00;99.90
15819;DHT22;8010;53.986;12.106;2024-03-07T04:01:18;4.00;99.90
15819;DHT22;8010;53.986;12.106;2024-03-07T04:03:44;4.00;99.90
15819;DHT22;8010;53.986;12.106;2024-03-07T04:06:12;4.00;99.90
15819;DHT22;8010;53.986;12.106;2024-03-07T04:08:37;4.10;99.90
15819;DHT22;8010;53.986;12.106;2024-03-07T04:11:03;4.00;99.90
15819;DHT22;8010;53.986;12.106;2024-03-07T04:13:29;4.00;99.90
15819;DHT22;8010;53.986;12.106;2024-03-07T04:15:56;4.00;99.90
15819;DHT22;8010;53.986;12.106;2024-03-07T04:18:22;4.10;99.90
15819;DHT22;8010;53.986;12.106;2024-03-07T04:20:48;4.10;99.90
15819;DHT22;8010;53.986;12.106;2024-03-07T04:23:14;4.10;99.90
15819;DHT22;8010;53.986;12.106;2024-03-07T04:25:40;4.10;99.90
15819;DHT22;8010;53.986;12.106;2024-03-07T04:28:06;4.10;99.90
15819;DHT22;8010;53.986;12.106;2024-03-07T04:30:32;4.10;99.90
15819;DHT22;8010;53.986;12.106;2024-03-07T04:32:57;4.10;99.90
15819;DHT22;8010;53.986;12.106;2024-03-07T04:35:23;4.10;99.90
15819;DHT22;8010;53.986;12.106;2024-03-07T04:37:49;4.10;99.90
15819;DHT22;8010;53.986;12.106;2024-03-07T04:40:16;4.10;99.90
15819;DHT22;8010;53.986;12.106;2024-03-07T04:42:46;4.10;99.90
15819;DHT22;8010;53.986;12.106;2024-03-07T04:45:12;4.20;99.90
15819;DHT22;8010;53.986;12.106;2024-03-07T04:47:42;4.10;99.90
15819;DHT22;8010;53.986;12.106;2024-03-07T04:50:08;4.40;99.90
15819;DHT22;8010;53.986;12.106;2024-03-07T04:52:39;4.20;99.90
15819;DHT22;8010;53.986;12.106;2024-03-07T04:55:08;4.20;99.90
15819;DHT22;8010;53.986;12.106;2024-03-07T04:57:38;4.20;99.90
15819;DHT22;8010;53.986;12.106;2024-03-07T05:00:07;4.20;99.90
15819;DHT22;8010;53.986;12.106;2024-03-07T05:02:33;4.20;99.90
15819;DHT22;8010;53.986;12.106;2024-03-07T05:04:59;4.20;99.90
15819;DHT22;8010;53.986;12.106;2024-03-07T05:07:24;4.20;99.90
15819;DHT22;8010;53.986;12.106;2024-03-07T05:09:50;4.20;99.90
15819;DHT22;8010;53.986;12.106;2024-03-07T05:12:15;4.30;99.90
15819;DHT22;8010;53.986;12.106;2024-03-07T05:14:41;4.20;99.90
15819;DHT22;8010;53.986;12.106;2024-03-07T05:17:06;4.20;99.90
15819;DHT22;8010;53.986;12.106;2024-03-07T05:19:34;4.20;99.90
15819;DHT22;8010;53.986;12.106;2024-03-07T05:22:00;4.30;99.90
15819;DHT22;8010;53.986;12.106;2024-03-07T05:24:25;4.20;99.90
15819;DHT22;8010;53.986;12.106;2024-03-07T05:26:51;4.30;99.90
15819;DHT22;8010;53.986;12.106;2024-03-07T05:29:18;4.30;99.90
15819;DHT22;8010;53.986;12.106;2024-03-07T05:31:44;4.30;99.90
15819;DHT22;8010;53.986;12.106;2024-03-07T05:34:15;4.30;99.90
15819;DHT22;8010;53.986;12.106;2024-03-07T05:36:41;4.30;99.90
15819;DHT22;8010;53.986;12.106;2024-03-07T05:39:11;4.30;99.90
15819;DHT22;8010;53.986;12.106;2024-03-07T05:41:37;4.30;99.90
15819;DHT22;8010;53.986;12.106;2024-03-07T05:44:03;4.30;99.90
15819;DHT22;8010;53.986;12.106;2024-03-07T05:46:30;4.30;99.90
15819;DHT22;8010;53.986;12.106;2024-03-07T05:48:55;4.30;99.90
15819;DHT22;8010;53.986;12.106;2024-03-07T05:51:22;4.40;99.90
15819;DHT22;8010;53.986;12.106;2024-03-07T05:53:49;4.40;99.90
15819;DHT22;8010;53.986;12.106;2024-03-07T05:56:14;4.30;99.90
15819;DHT22;8010;53.986;12.106;2024-03-07T05:58:40;4.40;99.90
15819;DHT22;8010;53.986;12.106;2024-03-07T06:01:05;4.40;99.90
15819;DHT22;8010;53.986;12.106;2024-03-07T06:03:33;4.40;99.90
15819;DHT22;8010;53.986;12.106;2024-03-07T06:05:59;4.40;99.90
15819;DHT22;8010;53.986;12.106;2024-03-07T06:08:25;4.40;99.90
15819;DHT22;8010;53.986;12.106;2024-03-07T06:10:50;4.50;99.90
15819;DHT22;8010;53.986;12.106;2024-03-07T06:13:16;4.40;99.90
15819;DHT22;8010;53.986;12.106;2024-03-07T06:15:46;4.40;99.90
15819;DHT22;8010;53.986;12.106;2024-03-07T06:18:12;4.40;99.90
15819;DHT22;8010;53.986;12.106;2024-03-07T06:20:39;4.40;99.90
15819;DHT22;8010;53.986;12.106;2024-03-07T06:23:06;4.50;99.90
15819;DHT22;8010;53.986;12.106;2024-03-07T06:25:32;4.50;99.90
15819;DHT22;8010;53.986;12.106;2024-03-07T06:28:15;4.40;99.90
15819;DHT22;8010;53.986;12.106;2024-03-07T06:30:43;4.50;99.90
15819;DHT22;8010;53.986;12.106;2024-03-07T06:33:10;4.50;99.90
15819;DHT22;8010;53.986;12.106;2024-03-07T06:35:36;4.50;99.90
15819;DHT22;8010;53.986;12.106;2024-03-07T06:38:06;4.60;99.90
15819;DHT22;8010;53.986;12.106;2024-03-07T06:40:32;4.60;99.90
15819;DHT22;8010;53.986;12.106;2024-03-07T06:42:59;4.60;99.90
15819;DHT22;8010;53.986;12.106;2024-03-07T06:45:24;4.70;99.90
15819;DHT22;8010;53.986;12.106;2024-03-07T06:47:50;4.70;99.90
15819;DHT22;8010;53.986;12.106;2024-03-07T06:50:18;4.80;99.90
15819;DHT22;8010;53.986;12.106;2024-03-07T06:52:46;4.80;99.90
15819;DHT22;8010;53.986;12.106;2024-03-07T06:55:16;4.90;99.90
15819;DHT22;8010;53.986;12.106;2024-03-07T06:57:43;4.90;99.90
15819;DHT22;8010;53.986;12.106;2024-03-07T07:00:10;5.00;99.90
15819;DHT22;8010;53.986;12.106;2024-03-07T07:02:40;5.10;99.90
15819;DHT22;8010;53.986;12.106;2024-03-07T07:05:06;5.10;99.90
15819;DHT22;8010;53.986;12.106;2024-03-07T07:07:37;5.00;99.90
15819;DHT22;8010;53.986;12.106;2024-03-07T07:10:04;5.00;99.90
15819;DHT22;8010;53.986;12.106;2024-03-07T07:12:29;5.00;99.90
15819;DHT22;8010;53.986;12.106;2024-03-07T07:14:55;5.00;99.90
15819;DHT22;8010;53.986;12.106;2024-03-07T07:17:20;5.00;99.90
15819;DHT22;8010;53.986;12.106;2024-03-07T07:19:46;5.00;99.90
15819;DHT22;8010;53.986;12.106;2024-03-07T07:22:11;5.10;99.90
15819;DHT22;8010;53.986;12.106;2024-03-07T07:24:38;5.10;99.90
15819;DHT22;8010;53.986;12.106;2024-03-07T07:27:03;5.10;99.90
15819;DHT22;8010;53.986;12.106;2024-03-07T07:29:29;5.10;99.90
15819;DHT22;8010;53.986;12.106;2024-03-07T07:31:55;5.20;99.90
15819;DHT22;8010;53.986;12.106;2024-03-07T07:34:21;5.20;99.90
15819;DHT22;8010;53.986;12.106;2024-03-07T07:36:46;5.20;99.90
15819;DHT22;8010;53.986;12.106;2024-03-07T07:39:12;5.20;99.90
15819;DHT22;8010;53.986;12.106;2024-03-07T07:41:42;5.30;99.90
15819;DHT22;8010;53.986;12.106;2024-03-07T07:44:08;5.30;99.90
15819;DHT22;8010;53.986;12.106;2024-03-07T07:46:34;5.40;99.90
15819;DHT22;8010;53.986;12.106;2024-03-07T07:49:01;5.50;99.90
15819;DHT22;8010;53.986;12.106;2024-03-07T07:51:28;5.60;99.90
15819;DHT22;8010;53.986;12.106;2024-03-07T07:53:53;5.70;99.90
15819;DHT22;8010;53.986;12.106;2024-03-07T07:56:22;6.00;99.90
15819;DHT22;8010;53.986;12.106;2024-03-07T07:58:48;5.80;99.90
15819;DHT22;8010;53.986;12.106;2024-03-07T08:01:14;5.90;99.90
15819;DHT22;8010;53.986;12.106;2024-03-07T08:03:43;7.40;99.90
15819;DHT22;8010;53.986;12.106;2024-03-07T08:06:09;6.20;99.90
15819;DHT22;8010;53.986;12.106;2024-03-07T08:08:35;6.30;99.90
15819;DHT22;8010;53.986;12.106;2024-03-07T08:11:01;6.40;99.90
15819;DHT22;8010;53.986;12.106;2024-03-07T08:13:27;6.50;99.90
15819;DHT22;8010;53.986;12.106;2024-03-07T08:15:52;6.60;99.90
15819;DHT22;8010;53.986;12.106;2024-03-07T08:18:19;6.70;99.90
15819;DHT22;8010;53.986;12.106;2024-03-07T08:20:46;6.80;99.90
15819;DHT22;8010;53.986;12.106;2024-03-07T08:23:12;6.90;99.90
15819;DHT22;8010;53.986;12.106;2024-03-07T08:25:38;7.10;99.90
15819;DHT22;8010;53.986;12.106;2024-03-07T08:28:07;7.20;99.90
15819;DHT22;8010;53.986;12.106;2024-03-07T08:30:33;7.20;99.90
15819;DHT22;8010;53.986;12.106;2024-03-07T08:33:00;7.30;99.90
15819;DHT22;8010;53.986;12.106;2024-03-07T08:35:28;7.40;99.90
15819;DHT22;8010;53.986;12.106;2024-03-07T08:37:55;7.60;99.90
15819;DHT22;8010;53.986;12.106;2024-03-07T08:40:25;7.70;99.90
15819;DHT22;8010;53.986;12.106;2024-03-07T08:42:51;7.70;99.90
15819;DHT22;8010;53.986;12.106;2024-03-07T08:45:18;7.70;99.90
15819;DHT22;8010;53.986;12.106;2024-03-07T08:47:48;7.70;99.90
15819;DHT22;8010;53.986;12.106;2024-03-07T08:50:15;7.70;99.90
15819;DHT22;8010;53.986;12.106;2024-03-07T08:52:41;7.70;99.90
15819;DHT22;8010;53.986;12.106;2024-03-07T08:55:08;7.80;99.90
15819;DHT22;8010;53.986;12.106;2024-03-07T08:57:38;8.00;99.90
15819;DHT22;8010;53.986;12.106;2024-03-07T09:00:05;8.10;99.90
15819;DHT22;8010;53.986;12.106;2024-03-07T09:02:35;8.30;99.90
15819;DHT22;8010;53.986;12.106;2024-03-07T09:05:05;8.40;99.90
15819;DHT22;8010;53.986;12.106;2024-03-07T09:07:31;8.40;99.90
15819;DHT22;8010;53.986;12.106;2024-03-07T09:09:57;8.60;99.90
15819;DHT22;8010;53.986;12.106;2024-03-07T09:12:23;8.80;99.90
15819;DHT22;8010;53.986;12.106;2024-03-07T09:14:50;8.90;99.90
15819;DHT22;8010;53.986;12.106;2024-03-07T09:17:17;8.90;99.90
15819;DHT22;8010;53.986;12.106;2024-03-07T09:19:43;8.90;99.90
15819;DHT22;8010;53.986;12.106;2024-03-07T09:22:08;9.00;99.90
15819;DHT22;8010;53.986;12.106;2024-03-07T09:24:34;9.10;99.90
15819;DHT22;8010;53.986;12.106;2024-03-07T09:27:00;9.10;99.90
15819;DHT22;8010;53.986;12.106;2024-03-07T09:29:26;9.10;99.90
15819;DHT22;8010;53.986;12.106;2024-03-07T09:31:53;9.10;99.90
15819;DHT22;8010;53.986;12.106;2024-03-07T09:34:19;9.10;99.90
15819;DHT22;8010;53.986;12.106;2024-03-07T09:36:48;9.20;99.90
15819;DHT22;8010;53.986;12.106;2024-03-07T09:39:14;9.30;99.90
15819;DHT22;8010;53.986;12.106;2024-03-07T09:41:41;9.50;99.90
15819;DHT22;8010;53.986;12.106;2024-03-07T09:44:08;9.60;99.90
15819;DHT22;8010;53.986;12.106;2024-03-07T09:46:35;9.80;99.90
15819;DHT22;8010;53.986;12.106;2024-03-07T09:49:01;10.20;99.90
15819;DHT22;8010;53.986;12.106;2024-03-07T09:51:28;9.80;99.90
15819;DHT22;8010;53.986;12.106;2024-03-07T09:53:56;9.90;99.90
15819;DHT22;8010;53.986;12.106;2024-03-07T09:56:25;9.90;99.90
15819;DHT22;8010;53.986;12.106;2024-03-07T09:58:53;10.00;99.90
15819;DHT22;8010;53.986;12.106;2024-03-07T10:01:20;10.20;99.90
15819;DHT22;8010;53.986;12.106;2024-03-07T10:03:48;10.30;99.90
15819;DHT22;8010;53.986;12.106;2024-03-07T10:06:15;10.40;99.90
15819;DHT22;8010;53.986;12.106;2024-03-07T10:08:42;10.50;99.90
15819;DHT22;8010;53.986;12.106;2024-03-07T10:11:09;10.50;99.90
15819;DHT22;8010;53.986;12.106;2024-03-07T10:13:34;11.40;99.90
15819;DHT22;8010;53.986;12.106;2024-03-07T10:16:03;10.50;99.90
15819;DHT22;8010;53.986;12.106;2024-03-07T10:18:31;10.60;99.90
15819;DHT22;8010;53.986;12.106;2024-03-07T10:20:57;10.80;99.90
15819;DHT22;8010;53.986;12.106;2024-03-07T10:23:23;10.80;99.90
15819;DHT22;8010;53.986;12.106;2024-03-07T10:25:52;10.90;99.90
15819;DHT22;8010;53.986;12.106;2024-03-07T10:28:19;11.00;99.90
15819;DHT22;8010;53.986;12.106;2024-03-07T10:30:46;11.10;99.90
15819;DHT22;8010;53.986;12.106;2024-03-07T10:33:15;11.50;99.90
15819;DHT22;8010;53.986;12.106;2024-03-07T10:35:42;11.30;99.90
15819;DHT22;8010;53.986;12.106;2024-03-07T10:38:07;11.30;99.90
15819;DHT22;8010;53.986;12.106;2024-03-07T10:40:37;11.40;99.90
15819;DHT22;8010;53.986;12.106;2024-03-07T10:43:09;12.40;99.90
15819;DHT22;8010;53.986;12.106;2024-03-07T10:45:46;11.70;99.90
15819;DHT22;8010;53.986;12.106;2024-03-07T10:48:18;11.70;99.90
15819;DHT22;8010;53.986;12.106;2024-03-07T10:56:47;12.20;99.90
15819;DHT22;8010;53.986;12.106;2024-03-07T10:59:18;12.30;99.90
15819;DHT22;8010;53.986;12.106;2024-03-07T11:02:15;12.30;99.90
15819;DHT22;8010;53.986;12.106;2024-03-07T11:04:46;12.30;99.90
15819;DHT22;8010;53.986;12.106;2024-03-07T11:07:12;12.30;99.90
15819;DHT22;8010;53.986;12.106;2024-03-07T11:09:39;12.20;99.90
15819;DHT22;8010;53.986;12.106;2024-03-07T11:12:07;12.30;99.90
15819;DHT22;8010;53.986;12.106;2024-03-07T11:14:36;12.40;99.90
15819;DHT22;8010;53.986;12.106;2024-03-07T11:17:03;12.40;99.90
15819;DHT22;8010;53.986;12.106;2024-03-07T11:19:31;12.30;99.90
15819;DHT22;8010;53.986;12.106;2024-03-07T11:22:00;13.30;99.90
15819;DHT22;8010;53.986;12.106;2024-03-07T11:24:28;12.50;99.90
15819;DHT22;8010;53.986;12.106;2024-03-07T11:26:55;12.70;99.90
15819;DHT22;8010;53.986;12.106;2024-03-07T11:29:40;12.90;99.90
15819;DHT22;8010;53.986;12.106;2024-03-07T11:32:15;12.90;99.90
15819;DHT22;8010;53.986;12.106;2024-03-07T11:34:42;13.00;99.90
15819;DHT22;8010;53.986;12.106;2024-03-07T11:37:20;13.10;99.90
15819;DHT22;8010;53.986;12.106;2024-03-07T11:39:49;13.10;99.90
15819;DHT22;8010;53.986;12.106;2024-03-07T11:42:24;13.20;99.90
15819;DHT22;8010;53.986;12.106;2024-03-07T11:44:54;13.20;99.90
15819;DHT22;8010;53.986;12.106;2024-03-07T11:47:34;13.30;99.90
15819;DHT22;8010;53.986;12.106;2024-03-07T11:50:02;13.40;99.90
15819;DHT22;8010;53.986;12.106;2024-03-07T11:52:33;14.70;99.90
15819;DHT22;8010;53.986;12.106;2024-03-07T11:54:59;13.50;99.90
15819;DHT22;8010;53.986;12.106;2024-03-07T11:57:29;13.50;99.90
15819;DHT22;8010;53.986;12.106;2024-03-07T12:00:01;13.70;99.90
15819;DHT22;8010;53.986;12.106;2024-03-07T12:02:33;13.60;99.90
15819;DHT22;8010;53.986;12.106;2024-03-07T12:04:59;13.60;99.90
15819;DHT22;8010;53.986;12.106;2024-03-07T12:07:26;13.70;99.90
15819;DHT22;8010;53.986;12.106;2024-03-07T12:09:52;13.70;99.90
15819;DHT22;8010;53.986;12.106;2024-03-07T12:12:21;13.70;99.90
15819;DHT22;8010;53.986;12.106;2024-03-07T12:14:47;13.70;99.90
15819;DHT22;8010;53.986;12.106;2024-03-07T12:17:14;13.90;99.90
15819;DHT22;8010;53.986;12.106;2024-03-07T12:19:43;14.00;99.90
15819;DHT22;8010;53.986;12.106;2024-03-07T12:22:11;14.10;99.90
15819;DHT22;8010;53.986;12.106;2024-03-07T12:24:40;14.20;99.90
15819;DHT22;8010;53.986;12.106;2024-03-07T12:27:11;13.90;99.90
15819;DHT22;8010;53.986;12.106;2024-03-07T12:29:40;14.80;99.90
15819;DHT22;8010;53.986;12.106;2024-03-07T12:32:08;13.80;99.90
15819;DHT22;8010;53.986;12.106;2024-03-07T12:34:36;13.80;99.90
15819;DHT22;8010;53.986;12.106;2024-03-07T12:37:09;13.80;99.90
15819;DHT22;8010;53.986;12.106;2024-03-07T12:39:35;13.80;99.90
15819;DHT22;8010;53.986;12.106;2024-03-07T12:42:04;13.60;99.90
15819;DHT22;8010;53.986;12.106;2024-03-07T12:44:40;13.70;99.90
15819;DHT22;8010;53.986;12.106;2024-03-07T12:47:09;13.90;99.90
15819;DHT22;8010;53.986;12.106;2024-03-07T12:49:35;13.90;99.90
15819;DHT22;8010;53.986;12.106;2024-03-07T12:52:01;14.20;99.90
15819;DHT22;8010;53.986;12.106;2024-03-07T12:54:26;14.20;99.90
15819;DHT22;8010;53.986;12.106;2024-03-07T12:56:52;14.20;99.90
15819;DHT22;8010;53.986;12.106;2024-03-07T12:59:18;14.30;99.90
15819;DHT22;8010;53.986;12.106;2024-03-07T13:01:45;16.90;99.90
15819;DHT22;8010;53.986;12.106;2024-03-07T13:04:13;14.50;99.90
15819;DHT22;8010;53.986;12.106;2024-03-07T13:06:39;14.60;99.90
15819;DHT22;8010;53.986;12.106;2024-03-07T13:09:09;14.90;99.90
15819;DHT22;8010;53.986;12.106;2024-03-07T13:11:39;15.00;99.90
15819;DHT22;8010;53.986;12.106;2024-03-07T13:14:12;15.00;99.90
15819;DHT22;8010;53.986;12.106;2024-03-07T13:16:37;15.10;99.90
15819;DHT22;8010;53.986;12.106;2024-03-07T13:19:03;15.20;99.90
15819;DHT22;8010;53.986;12.106;2024-03-07T13:21:33;18.50;99.90
15819;DHT22;8010;53.986;12.106;2024-03-07T13:24:01;15.40;99.90
15819;DHT22;8010;53.986;12.106;2024-03-07T13:26:28;15.30;99.90
15819;DHT22;8010;53.986;12.106;2024-03-07T13:28:55;15.30;99.90
15819;DHT22;8010;53.986;12.106;2024-03-07T13:31:21;15.30;99.90
15819;DHT22;8010;53.986;12.106;2024-03-07T13:33:48;15.20;99.90
15819;DHT22;8010;53.986;12.106;2024-03-07T13:36:17;15.10;99.90
15819;DHT22;8010;53.986;12.106;2024-03-07T13:38:49;15.00;99.90
15819;DHT22;8010;53.986;12.106;2024-03-07T13:41:18;15.00;99.90
15819;DHT22;8010;53.986;12.106;2024-03-07T13:43:44;15.30;99.90
15819;DHT22;8010;53.986;12.106;2024-03-07T13:46:09;15.50;99.90
15819;DHT22;8010;53.986;12.106;2024-03-07T13:48:37;15.50;99.90
15819;DHT22;8010;53.986;12.106;2024-03-07T13:51:03;15.50;99.90
15819;DHT22;8010;53.986;12.106;2024-03-07T13:53:33;15.60;99.90
15819;DHT22;8010;53.986;12.106;2024-03-07T14:07:04;16.00;99.90
15819;DHT22;8010;53.986;12.106;2024-03-07T14:09:46;15.90;99.90
15819;DHT22;8010;53.986;12.106;2024-03-07T14:12:32;15.90;99.90
15819;DHT22;8010;53.986;12.106;2024-03-07T14:18:54;15.60;99.90
15819;DHT22;8010;53.986;12.106;2024-03-07T14:21:58;15.50;99.90
15819;DHT22;8010;53.986;12.106;2024-03-07T14:27:30;15.40;99.90
15819;DHT22;8010;53.986;12.106;2024-03-07T14:33:01;15.30;99.90
15819;DHT22;8010;53.986;12.106;2024-03-07T14:36:13;15.20;99.90
15819;DHT22;8010;53.986;12.106;2024-03-07T14:38:51;15.10;99.90
15819;DHT22;8010;53.986;12.106;2024-03-07T14:41:20;14.90;99.90
15819;DHT22;8010;53.986;12.106;2024-03-07T14:43:48;14.80;99.90
15819;DHT22;8010;53.986;12.106;2024-03-07T14:46:15;14.90;99.90
15819;DHT22;8010;53.986;12.106;2024-03-07T14:48:41;14.80;99.90
15819;DHT22;8010;53.986;12.106;2024-03-07T14:51:08;14.70;99.90
15819;DHT22;8010;53.986;12.106;2024-03-07T14:53:34;14.60;99.90
15819;DHT22;8010;53.986;12.106;2024-03-07T14:56:00;14.60;99.90
15819;DHT22;8010;53.986;12.106;2024-03-07T14:58:26;14.50;99.90
15819;DHT22;8010;53.986;12.106;2024-03-07T15:00:52;14.30;99.90
15819;DHT22;8010;53.986;12.106;2024-03-07T15:03:20;14.40;99.90
15819;DHT22;8010;53.986;12.106;2024-03-07T15:05:45;14.30;99.90
15819;DHT22;8010;53.986;12.106;2024-03-07T15:08:12;14.10;99.90
15819;DHT22;8010;53.986;12.106;2024-03-07T15:10:43;13.80;99.90
15819;DHT22;8010;53.986;12.106;2024-03-07T15:13:12;13.70;99.90
15819;DHT22;8010;53.986;12.106;2024-03-07T15:15:38;13.40;99.90
15819;DHT22;8010;53.986;12.106;2024-03-07T15:18:05;13.50;99.90
15819;DHT22;8010;53.986;12.106;2024-03-07T15:20:31;14.00;99.90
15819;DHT22;8010;53.986;12.106;2024-03-07T15:22:58;13.70;99.90
15819;DHT22;8010;53.986;12.106;2024-03-07T15:25:25;13.60;99.90
15819;DHT22;8010;53.986;12.106;2024-03-07T15:27:56;13.40;99.90
15819;DHT22;8010;53.986;12.106;2024-03-07T15:30:25;13.40;99.90
15819;DHT22;8010;53.986;12.106;2024-03-07T15:32:58;13.30;99.90
15819;DHT22;8010;53.986;12.106;2024-03-07T15:35:25;13.10;99.90
15819;DHT22;8010;53.986;12.106;2024-03-07T15:37:52;13.10;99.90
15819;DHT22;8010;53.986;12.106;2024-03-07T15:40:19;13.00;99.90
15819;DHT22;8010;53.986;12.106;2024-03-07T15:42:48;13.10;99.90
15819;DHT22;8010;53.986;12.106;2024-03-07T15:45:17;13.20;99.90
15819;DHT22;8010;53.986;12.106;2024-03-07T15:47:48;13.10;99.90
15819;DHT22;8010;53.986;12.106;2024-03-07T15:50:13;12.90;99.90
15819;DHT22;8010;53.986;12.106;2024-03-07T15:52:42;12.80;99.90
15819;DHT22;8010;53.986;12.106;2024-03-07T15:55:08;12.60;99.90
15819;DHT22;8010;53.986;12.106;2024-03-07T15:57:52;12.50;99.90
15819;DHT22;8010;53.986;12.106;2024-03-07T16:00:26;12.50;99.90
15819;DHT22;8010;53.986;12.106;2024-03-07T16:02:59;12.40;99.90
15819;DHT22;8010;53.986;12.106;2024-03-07T16:05:32;12.10;99.90
15819;DHT22;8010;53.986;12.106;2024-03-07T16:07:59;12.00;99.90
15819;DHT22;8010;53.986;12.106;2024-03-07T16:10:27;11.90;99.90